createdAt,value
2019-06-08T00:02:07.397Z,23.36
2019-06-08T00:04:39.242Z,23.45
2019-06-08T00:07:12.776Z,23.38
2019-06-08T00:09:44.608Z,23.36
2019-06-08T00:12:19.011Z,23.33
2019-06-08T00:14:50.995Z,23.31
2019-06-08T00:17:34.360Z,23.28
2019-06-08T00:19:57.078Z,23.26
2019-06-08T00:22:29.453Z,23.27
2019-06-08T00:25:01.674Z,23.28
2019-06-08T00:27:35.838Z,23.23
2019-06-08T00:30:07.601Z,23.25
2019-06-08T00:32:39.695Z,23.30
2019-06-08T00:35:11.537Z,23.38
2019-06-08T00:37:43.823Z,23.49
2019-06-08T00:40:16.852Z,23.56
2019-06-08T00:42:48.775Z,23.55
2019-06-08T00:45:21.678Z,23.62
2019-06-08T00:47:53.838Z,23.65
2019-06-08T00:50:26.211Z,23.62
2019-06-08T00:52:58.185Z,23.63
2019-06-08T00:55:30.456Z,23.61
2019-06-08T00:58:02.834Z,23.60
2019-06-08T01:00:34.913Z,23.59
2019-06-08T01:03:07.071Z,23.54
2019-06-08T01:05:39.133Z,23.43
2019-06-08T01:08:11.565Z,23.28
2019-06-08T01:10:43.577Z,23.17
2019-06-08T01:13:15.854Z,23.19
2019-06-08T01:15:47.925Z,23.18
2019-06-08T01:18:21.142Z,23.26
2019-06-08T01:20:54.209Z,23.34
2019-06-08T01:23:27.807Z,23.41
2019-06-08T01:25:59.988Z,23.50
2019-06-08T01:28:33.386Z,23.64
2019-06-08T01:31:05.151Z,23.65
2019-06-08T01:33:37.215Z,23.69
2019-06-08T01:36:09.131Z,23.72
2019-06-08T01:38:41.260Z,23.69
2019-06-08T01:41:13.216Z,23.65
2019-06-08T01:43:46.205Z,23.60
2019-06-08T01:46:18.170Z,23.54
2019-06-08T01:48:50.557Z,23.61
2019-06-08T01:51:22.820Z,23.62
2019-06-08T01:53:55.094Z,23.62
2019-06-08T01:56:27.472Z,23.60
2019-06-08T01:59:00.881Z,23.59
2019-06-08T02:01:34.156Z,23.59
2019-06-08T02:04:06.338Z,23.58
2019-06-08T02:06:38.430Z,23.56
2019-06-08T02:09:10.679Z,23.57
2019-06-08T02:11:42.800Z,23.58
2019-06-08T02:14:15.082Z,23.57
2019-06-08T02:16:48.425Z,23.59
2019-06-08T02:19:20.289Z,23.62
2019-06-08T02:21:52.457Z,23.67
2019-06-08T02:24:24.782Z,23.74
2019-06-08T02:26:57.109Z,23.79
2019-06-08T02:29:33.722Z,23.82
2019-06-08T02:32:05.876Z,23.85
2019-06-08T02:34:40.498Z,23.83
2019-06-08T02:37:12.767Z,23.76
2019-06-08T02:39:45.138Z,23.67
2019-06-08T02:42:17.517Z,23.59
2019-06-08T02:44:49.484Z,23.57
2019-06-08T02:47:21.555Z,23.64
2019-06-08T02:49:53.519Z,23.75
2019-06-08T02:52:25.689Z,23.91
2019-06-08T02:54:57.687Z,24.12
2019-06-08T02:57:31.016Z,24.32
2019-06-08T03:00:03.252Z,24.51
2019-06-08T03:02:36.929Z,24.64
2019-06-08T03:05:09.629Z,24.75
2019-06-08T03:07:43.137Z,24.89
2019-06-08T03:10:14.997Z,24.98
2019-06-08T03:12:47.265Z,25.01
2019-06-08T03:15:22.919Z,25.07
2019-06-08T03:17:55.091Z,25.11
2019-06-08T03:20:27.159Z,25.16
2019-06-08T03:23:00.558Z,25.20
2019-06-08T03:25:42.076Z,25.26
2019-06-08T03:28:07.873Z,25.33
2019-06-08T03:30:51.925Z,25.41
2019-06-08T03:33:13.351Z,25.41
2019-06-08T03:35:55.375Z,25.53
2019-06-08T03:38:19.529Z,25.60
2019-06-08T03:40:51.604Z,25.70
2019-06-08T03:43:23.868Z,25.76
2019-06-08T03:45:56.348Z,25.87
2019-06-08T03:48:28.518Z,25.96
2019-06-08T03:51:00.686Z,26.00
2019-06-08T03:53:32.860Z,26.09
2019-06-08T03:56:05.137Z,26.24
2019-06-08T03:58:38.515Z,26.35
2019-06-08T04:01:11.229Z,26.37
2019-06-08T04:03:44.037Z,26.43
2019-06-08T04:06:16.490Z,26.47
2019-06-08T04:08:49.958Z,26.49
2019-06-08T04:11:22.064Z,26.51
2019-06-08T04:13:54.341Z,26.44
2019-06-08T04:16:27.629Z,26.42
2019-06-08T04:18:59.800Z,26.47
2019-06-08T04:21:31.972Z,26.45
2019-06-08T04:24:04.384Z,26.43
2019-06-08T04:26:38.449Z,26.38
2019-06-08T04:29:10.636Z,26.31
2019-06-08T04:31:43.791Z,26.28
2019-06-08T04:34:16.004Z,26.28
2019-06-08T04:36:50.200Z,26.36
2019-06-08T04:39:21.574Z,26.42
2019-06-08T04:41:53.645Z,26.44
2019-06-08T04:44:26.015Z,26.51
2019-06-08T04:46:58.390Z,26.56
2019-06-08T04:49:30.363Z,26.64
2019-06-08T04:52:02.743Z,26.64
2019-06-08T04:54:34.703Z,26.67
2019-06-08T04:57:06.979Z,26.66
2019-06-08T04:59:39.681Z,26.80
2019-06-08T05:02:12.654Z,26.86
2019-06-08T05:04:45.349Z,26.92
2019-06-08T05:07:20.885Z,27.03
2019-06-08T05:09:52.953Z,27.16
2019-06-08T05:12:25.446Z,27.08
2019-06-08T05:14:57.397Z,27.21
2019-06-08T05:17:29.779Z,27.37
2019-06-08T05:20:01.745Z,27.40
2019-06-08T05:22:33.704Z,27.45
2019-06-08T05:25:07.207Z,27.54
2019-06-08T05:27:41.271Z,27.65
2019-06-08T05:30:13.599Z,27.78
2019-06-08T05:32:45.976Z,27.86
2019-06-08T05:35:18.349Z,27.98
2019-06-08T05:37:50.323Z,28.09
2019-06-08T05:40:23.715Z,28.12
2019-06-08T05:42:55.892Z,28.28
2019-06-08T05:45:28.317Z,28.46
2019-06-08T05:48:00.535Z,28.55
2019-06-08T05:50:32.811Z,28.71
2019-06-08T05:53:04.876Z,28.80
2019-06-08T05:55:36.746Z,28.90
2019-06-08T05:58:08.821Z,29.02
2019-06-08T06:00:42.138Z,29.07
2019-06-08T06:03:14.079Z,29.24
2019-06-08T06:05:46.584Z,29.44
2019-06-08T06:08:19.528Z,29.51
2019-06-08T06:10:51.514Z,29.69
2019-06-08T06:13:24.196Z,29.83
2019-06-08T06:15:56.064Z,29.83
2019-06-08T06:18:28.234Z,29.95
2019-06-08T06:21:10.289Z,30.05
2019-06-08T06:23:33.901Z,29.98
2019-06-08T06:26:05.883Z,29.97
2019-06-08T06:28:37.738Z,30.04
2019-06-08T06:31:09.911Z,30.13
2019-06-08T06:33:42.092Z,30.13
2019-06-08T06:36:14.464Z,30.22
2019-06-08T06:38:47.908Z,30.20
2019-06-08T06:41:20.213Z,30.32
2019-06-08T06:43:52.359Z,30.46
2019-06-08T06:46:24.446Z,30.55
2019-06-08T06:48:56.612Z,30.59
2019-06-08T06:51:28.541Z,30.70
2019-06-08T06:54:01.667Z,30.64
2019-06-08T06:56:33.732Z,30.71
2019-06-08T06:59:06.001Z,30.83
2019-06-08T07:01:39.591Z,30.93
2019-06-08T07:04:13.572Z,31.13
2019-06-08T07:06:46.236Z,31.05
2019-06-08T07:09:18.504Z,31.26
2019-06-08T07:11:53.088Z,31.23
2019-06-08T07:14:26.683Z,31.26
2019-06-08T07:16:58.541Z,31.26
2019-06-08T07:19:30.605Z,31.33
2019-06-08T07:22:03.271Z,31.39
2019-06-08T07:24:35.663Z,31.46
2019-06-08T07:27:07.823Z,31.56
2019-06-08T07:29:42.759Z,31.57
2019-06-08T07:32:15.847Z,31.89
2019-06-08T07:34:49.956Z,31.96
2019-06-08T07:37:21.625Z,32.12
2019-06-08T07:39:53.754Z,32.08
2019-06-08T07:42:25.760Z,32.00
2019-06-08T07:45:00.229Z,31.99
2019-06-08T07:47:32.149Z,31.95
2019-06-08T07:50:05.077Z,32.02
2019-06-08T07:52:36.898Z,32.20
2019-06-08T07:55:09.392Z,32.26
2019-06-08T07:57:41.237Z,32.27
2019-06-08T08:00:13.718Z,32.50
2019-06-08T08:02:45.885Z,32.65
2019-06-08T08:05:17.648Z,32.74
2019-06-08T08:07:50.231Z,32.80
2019-06-08T08:10:22.202Z,32.75
2019-06-08T08:12:54.776Z,32.74
2019-06-08T08:15:26.740Z,32.84
2019-06-08T08:17:59.606Z,33.05
2019-06-08T08:20:31.692Z,33.23
2019-06-08T08:23:06.200Z,33.12
2019-06-08T08:25:37.956Z,33.21
2019-06-08T08:28:09.936Z,33.41
2019-06-08T08:30:42.222Z,33.36
2019-06-08T08:33:14.093Z,33.50
2019-06-08T08:35:48.208Z,33.38
2019-06-08T08:38:19.962Z,33.56
2019-06-08T08:40:53.435Z,33.56
2019-06-08T08:43:27.852Z,33.59
2019-06-08T08:46:01.849Z,33.51
2019-06-08T08:48:32.743Z,33.42
2019-06-08T08:51:05.122Z,33.61
2019-06-08T08:53:37.515Z,33.85
2019-06-08T08:56:09.358Z,33.89
2019-06-08T08:58:41.463Z,33.90
2019-06-08T09:01:13.284Z,33.83
2019-06-08T09:03:45.254Z,33.94
2019-06-08T09:06:18.129Z,34.07
2019-06-08T09:08:52.036Z,34.15
2019-06-08T09:11:24.834Z,34.13
2019-06-08T09:14:02.498Z,34.20
2019-06-08T09:16:31.016Z,34.36
2019-06-08T09:19:04.444Z,34.52
2019-06-08T09:21:38.396Z,34.53
2019-06-08T09:24:10.484Z,34.51
2019-06-08T09:26:42.352Z,34.62
2019-06-08T09:29:14.829Z,34.71
2019-06-08T09:31:48.876Z,34.94
2019-06-08T09:34:20.568Z,34.96
2019-06-08T09:36:54.062Z,34.60
2019-06-08T09:39:28.502Z,34.75
2019-06-08T09:42:02.974Z,34.73
2019-06-08T09:44:34.299Z,35.00
2019-06-08T09:47:12.149Z,34.95
2019-06-08T09:49:40.385Z,35.06
2019-06-08T09:52:12.666Z,35.33
2019-06-08T09:54:44.639Z,35.61
2019-06-08T09:57:18.852Z,35.72
2019-06-08T09:59:50.515Z,35.72
2019-06-08T10:02:22.573Z,35.63
2019-06-08T10:04:56.074Z,35.74
2019-06-08T10:07:31.363Z,35.72
2019-06-08T10:10:03.142Z,35.31
2019-06-08T10:12:37.729Z,35.60
2019-06-08T10:15:09.066Z,36.00
2019-06-08T10:17:40.825Z,36.44
2019-06-08T10:20:12.983Z,36.81
2019-06-08T10:22:44.955Z,37.11
2019-06-08T10:25:17.123Z,37.29
2019-06-08T10:27:49.205Z,37.02
2019-06-08T10:30:21.266Z,37.24
2019-06-08T10:32:53.673Z,37.31
2019-06-08T10:35:28.220Z,36.97
2019-06-08T10:38:02.799Z,37.05
2019-06-08T10:40:35.258Z,37.53
2019-06-08T10:43:09.894Z,37.91
2019-06-08T10:45:41.029Z,37.97
2019-06-08T10:48:13.205Z,38.09
2019-06-08T10:50:47.191Z,38.27
2019-06-08T10:53:18.873Z,38.83
2019-06-08T10:55:51.252Z,39.61
2019-06-08T10:58:23.717Z,40.14
2019-06-08T11:00:57.851Z,40.17
2019-06-08T11:03:30.684Z,39.69
2019-06-08T11:06:07.517Z,39.33
2019-06-08T11:08:39.097Z,38.95
2019-06-08T11:11:11.955Z,39.75
2019-06-08T11:13:50.092Z,40.95
2019-06-08T11:16:20.897Z,41.91
2019-06-08T11:18:53.256Z,42.90
2019-06-08T11:21:25.541Z,43.67
2019-06-08T11:24:10.388Z,44.05
2019-06-08T11:26:31.203Z,44.65
2019-06-08T11:29:04.941Z,44.79
2019-06-08T11:31:39.291Z,44.51
2019-06-08T11:34:11.098Z,44.49
2019-06-08T11:36:43.259Z,44.77
2019-06-08T11:39:15.431Z,45.34
2019-06-08T11:41:48.488Z,45.27
2019-06-08T11:44:20.485Z,45.22
2019-06-08T11:46:52.587Z,45.52
2019-06-08T11:49:24.403Z,46.04
2019-06-08T11:51:58.350Z,45.75
2019-06-08T11:54:37.084Z,45.86
2019-06-08T11:57:04.907Z,45.47
2019-06-08T11:59:37.513Z,46.08
2019-06-08T12:02:12.682Z,46.61
2019-06-08T12:04:43.571Z,46.96
2019-06-08T12:07:15.457Z,47.30
2019-06-08T12:09:49.935Z,47.19
2019-06-08T12:12:21.473Z,47.53
2019-06-08T12:14:53.484Z,47.70
2019-06-08T12:17:27.635Z,47.89
2019-06-08T12:19:59.052Z,47.98
2019-06-08T12:22:31.119Z,47.98
2019-06-08T12:25:05.927Z,47.83
2019-06-08T12:27:40.244Z,47.49
2019-06-08T12:30:21.683Z,48.09
2019-06-08T12:32:45.018Z,48.45
2019-06-08T12:35:18.130Z,48.39
2019-06-08T12:37:51.576Z,48.17
2019-06-08T12:40:23.576Z,47.78
2019-06-08T12:42:59.494Z,47.80
2019-06-08T12:45:29.357Z,47.90
2019-06-08T12:48:02.443Z,48.32
2019-06-08T12:50:34.518Z,47.64
2019-06-08T12:53:12.394Z,47.73
2019-06-08T12:55:39.370Z,47.73
2019-06-08T12:58:12.608Z,47.12
2019-06-08T13:00:44.154Z,47.16
2019-06-08T13:03:16.702Z,46.70
2019-06-08T13:05:48.663Z,47.08
2019-06-08T13:08:21.835Z,47.11
2019-06-08T13:10:54.025Z,47.29
2019-06-08T13:13:28.101Z,47.24
2019-06-08T13:15:59.906Z,47.22
2019-06-08T13:18:31.669Z,46.62
2019-06-08T13:21:16.664Z,46.54
2019-06-08T13:23:38.335Z,46.27
2019-06-08T13:26:11.503Z,45.66
2019-06-08T13:28:43.932Z,44.89
2019-06-08T13:31:19.322Z,44.88
2019-06-08T13:33:49.190Z,44.89
2019-06-08T13:36:25.850Z,44.32
2019-06-08T13:38:54.461Z,44.22
2019-06-08T13:41:29.655Z,44.03
2019-06-08T13:44:00.132Z,43.91
2019-06-08T13:46:32.004Z,43.96
2019-06-08T13:49:04.164Z,44.18
2019-06-08T13:51:38.227Z,44.77
2019-06-08T13:54:09.535Z,45.65
2019-06-08T13:56:41.291Z,46.50
2019-06-08T13:59:13.613Z,47.61
2019-06-08T14:01:47.777Z,47.90
2019-06-08T14:04:21.052Z,48.57
2019-06-08T14:06:53.687Z,49.50
2019-06-08T14:09:28.494Z,49.56
2019-06-08T14:11:59.936Z,49.60
2019-06-08T14:14:33.783Z,49.71
2019-06-08T14:17:04.789Z,49.88
2019-06-08T14:19:38.534Z,49.11
2019-06-08T14:22:10.779Z,49.17
2019-06-08T14:24:42.823Z,49.17
2019-06-08T14:27:14.885Z,48.04
2019-06-08T14:29:51.370Z,48.04
2019-06-08T14:32:23.887Z,47.32
2019-06-08T14:34:58.182Z,46.26
2019-06-08T14:37:30.532Z,46.41
2019-06-08T14:40:02.493Z,46.07
2019-06-08T14:42:34.560Z,45.58
2019-06-08T14:45:10.733Z,45.35
2019-06-08T14:47:41.970Z,43.96
2019-06-08T14:50:14.547Z,42.42
2019-06-08T14:52:47.948Z,42.09
2019-06-08T14:55:22.229Z,41.52
2019-06-08T14:57:55.146Z,41.55
2019-06-08T15:00:27.821Z,41.61
2019-06-08T15:02:59.997Z,41.37
2019-06-08T15:05:32.678Z,40.88
2019-06-08T15:08:04.727Z,40.35
2019-06-08T15:10:38.532Z,40.18
2019-06-08T15:13:10.726Z,39.26
2019-06-08T15:15:42.586Z,39.48
2019-06-08T15:18:14.655Z,40.12
2019-06-08T15:20:48.113Z,40.80
2019-06-08T15:23:22.890Z,41.44
2019-06-08T15:25:53.619Z,42.05
2019-06-08T15:28:29.281Z,42.50
2019-06-08T15:31:00.064Z,43.10
2019-06-08T15:33:33.679Z,43.50
2019-06-08T15:36:05.671Z,43.88
2019-06-08T15:38:38.189Z,44.24
2019-06-08T15:41:10.318Z,44.80
2019-06-08T15:43:42.218Z,44.67
2019-06-08T15:46:14.353Z,44.75
2019-06-08T15:48:48.496Z,44.97
2019-06-08T15:51:19.914Z,44.91
2019-06-08T15:53:51.980Z,44.87
2019-06-08T15:56:40.490Z,44.44
2019-06-08T15:58:58.806Z,44.29
2019-06-08T16:01:31.866Z,44.18
2019-06-08T16:04:04.449Z,44.21
2019-06-08T16:06:36.423Z,43.37
2019-06-08T16:09:09.190Z,42.16
2019-06-08T16:11:41.361Z,40.97
2019-06-08T16:14:13.836Z,40.19
2019-06-08T16:16:45.497Z,39.36
2019-06-08T16:19:17.769Z,38.61
2019-06-08T16:21:50.345Z,37.99
2019-06-08T16:24:22.308Z,37.65
2019-06-08T16:26:54.574Z,37.74
2019-06-08T16:29:26.898Z,37.49
2019-06-08T16:31:58.910Z,36.96
2019-06-08T16:34:31.412Z,36.47
2019-06-08T16:37:03.475Z,36.07
2019-06-08T16:39:35.728Z,35.72
2019-06-08T16:42:07.803Z,35.35
2019-06-08T16:44:39.861Z,34.96
2019-06-08T16:47:11.943Z,34.67
2019-06-08T16:49:43.896Z,34.77
2019-06-08T16:52:17.393Z,35.09
2019-06-08T16:54:49.363Z,35.28
2019-06-08T16:57:21.326Z,35.38
2019-06-08T16:59:53.497Z,35.15
2019-06-08T17:02:25.567Z,34.90
2019-06-08T17:04:57.937Z,34.67
2019-06-08T17:07:29.900Z,34.09
2019-06-08T17:10:02.281Z,33.53
2019-06-08T17:12:37.008Z,33.10
2019-06-08T17:15:08.276Z,32.76
2019-06-08T17:17:40.536Z,32.43
2019-06-08T17:20:12.593Z,31.98
2019-06-08T17:22:44.557Z,31.61
2019-06-08T17:25:16.629Z,31.33
2019-06-08T17:27:48.694Z,31.02
2019-06-08T17:30:20.665Z,30.73
2019-06-08T17:32:53.248Z,30.53
2019-06-08T17:35:25.204Z,30.34
2019-06-08T17:37:57.067Z,30.17
2019-06-08T17:40:28.833Z,29.96
2019-06-08T17:43:01.099Z,29.79
2019-06-08T17:45:34.214Z,29.63
2019-06-08T17:48:06.262Z,29.49
2019-06-08T17:50:38.689Z,29.36
2019-06-08T17:53:10.613Z,29.19
2019-06-08T17:55:43.668Z,29.08
2019-06-08T17:58:15.870Z,28.98
2019-06-08T18:00:47.941Z,28.82
2019-06-08T18:03:20.111Z,28.76
2019-06-08T18:05:52.179Z,28.67
2019-06-08T18:08:25.971Z,28.56
2019-06-08T18:10:58.157Z,28.52
2019-06-08T18:13:29.919Z,28.46
2019-06-08T18:16:01.994Z,28.39
2019-06-08T18:18:34.209Z,28.34
2019-06-08T18:21:08.138Z,28.29
2019-06-08T18:23:41.842Z,28.22
2019-06-08T18:26:13.646Z,28.16
2019-06-08T18:28:48.342Z,28.08
2019-06-08T18:31:19.419Z,27.98
2019-06-08T18:33:52.207Z,27.86
2019-06-08T18:36:27.525Z,27.82
2019-06-08T18:38:59.109Z,27.79
2019-06-08T18:41:31.175Z,27.74
2019-06-08T18:44:02.942Z,27.65
2019-06-08T18:46:38.024Z,27.58
2019-06-08T18:49:10.970Z,27.50
2019-06-08T18:51:43.912Z,27.46
2019-06-08T18:54:18.592Z,27.40
2019-06-08T18:56:49.730Z,27.36
2019-06-08T18:59:21.902Z,27.28
2019-06-08T19:01:53.770Z,27.20
2019-06-08T19:04:27.676Z,27.13
2019-06-08T19:07:01.377Z,27.07
2019-06-08T19:09:34.281Z,26.99
2019-06-08T19:12:06.420Z,26.88
2019-06-08T19:14:39.279Z,26.79
2019-06-08T19:17:12.426Z,26.71
2019-06-08T19:19:47.533Z,26.70
2019-06-08T19:22:18.999Z,26.66
2019-06-08T19:24:50.948Z,26.62
2019-06-08T19:27:23.874Z,26.54
2019-06-08T19:29:57.775Z,26.50
2019-06-08T19:32:29.265Z,26.48
2019-06-08T19:35:01.038Z,26.51
2019-06-08T19:37:32.938Z,26.52
2019-06-08T19:40:07.428Z,26.52
2019-06-08T19:42:50.460Z,26.48
2019-06-08T19:45:12.678Z,26.49
2019-06-08T19:47:45.045Z,26.41
2019-06-08T19:50:17.238Z,26.43
2019-06-08T19:52:52.214Z,26.44
2019-06-08T19:55:23.087Z,26.40
2019-06-08T19:57:57.006Z,26.41
2019-06-08T20:00:29.067Z,26.33
2019-06-08T20:03:01.343Z,26.31
2019-06-08T20:05:33.407Z,26.34
2019-06-08T20:08:07.965Z,26.30
2019-06-08T20:10:41.037Z,26.28
2019-06-08T20:13:13.045Z,26.23
2019-06-08T20:15:50.439Z,26.23
2019-06-08T20:18:18.677Z,26.16
2019-06-08T20:20:53.118Z,26.06
2019-06-08T20:23:24.449Z,25.95
2019-06-08T20:25:57.357Z,25.90
2019-06-08T20:28:30.034Z,25.90
2019-06-08T20:31:02.298Z,25.88
2019-06-08T20:33:37.682Z,25.79
2019-06-08T20:36:08.892Z,25.79
2019-06-08T20:38:43.764Z,25.78
2019-06-08T20:41:15.103Z,25.75
2019-06-08T20:43:50.333Z,25.74
2019-06-08T20:46:20.536Z,25.67
2019-06-08T20:48:53.267Z,25.66
2019-06-08T20:51:27.713Z,25.63
2019-06-08T20:53:58.925Z,25.60
2019-06-08T20:56:30.835Z,25.57
2019-06-08T20:59:02.900Z,25.56
2019-06-08T21:01:34.978Z,25.57
2019-06-08T21:04:07.697Z,25.58
2019-06-08T21:06:41.059Z,25.53
2019-06-08T21:09:12.809Z,25.49
2019-06-08T21:11:49.359Z,25.46
2019-06-08T21:14:19.798Z,25.38
2019-06-08T21:16:53.310Z,25.31
2019-06-08T21:19:28.100Z,25.26
2019-06-08T21:22:00.088Z,25.22
2019-06-08T21:24:32.252Z,25.21
2019-06-08T21:27:04.430Z,25.20
2019-06-08T21:29:47.647Z,25.21
2019-06-08T21:32:10.370Z,25.19
2019-06-08T21:34:42.687Z,25.18
2019-06-08T21:37:14.959Z,25.19
2019-06-08T21:39:53.018Z,25.19
2019-06-08T21:42:23.291Z,25.20
2019-06-08T21:44:59.389Z,25.16
2019-06-08T21:47:29.751Z,25.08
2019-06-08T21:50:02.231Z,24.94
2019-06-08T21:52:34.678Z,24.99
2019-06-08T21:55:07.482Z,24.99
2019-06-08T21:57:39.348Z,25.02
2019-06-08T22:00:35.884Z,25.05
2019-06-08T22:02:47.974Z,24.91
2019-06-08T22:05:21.084Z,24.89
2019-06-08T22:07:54.056Z,24.85
2019-06-08T22:10:26.053Z,24.85
2019-06-08T22:13:00.939Z,24.88
2019-06-08T22:15:32.320Z,25.00
2019-06-08T22:18:04.542Z,25.13
2019-06-08T22:20:38.244Z,25.06
2019-06-08T22:23:10.377Z,25.08
2019-06-08T22:25:42.756Z,25.10
2019-06-08T22:28:14.827Z,25.12
2019-06-08T22:30:48.233Z,25.14
2019-06-08T22:33:20.184Z,25.04
2019-06-08T22:35:53.133Z,25.03
2019-06-08T22:38:25.959Z,25.12
2019-06-08T22:41:00.295Z,25.14
2019-06-08T22:43:32.551Z,25.14
2019-06-08T22:46:04.419Z,25.12
2019-06-08T22:48:38.365Z,25.21
2019-06-08T22:51:10.093Z,25.32
2019-06-08T22:53:42.055Z,25.40
2019-06-08T22:56:14.329Z,25.49
2019-06-08T22:58:47.928Z,25.56
2019-06-08T23:01:19.863Z,25.60
2019-06-08T23:03:51.561Z,25.60
2019-06-08T23:06:24.042Z,25.60
2019-06-08T23:08:59.801Z,25.65
2019-06-08T23:11:30.330Z,25.76
2019-06-08T23:14:04.396Z,25.75
2019-06-08T23:16:36.311Z,25.62
2019-06-08T23:19:08.586Z,25.62
2019-06-08T23:21:40.652Z,25.65
2019-06-08T23:24:12.520Z,25.62
2019-06-08T23:26:44.690Z,25.59
2019-06-08T23:29:17.880Z,25.61
2019-06-08T23:31:49.847Z,25.66
2019-06-08T23:34:23.400Z,25.73
2019-06-08T23:36:59.979Z,25.77
2019-06-08T23:39:29.232Z,25.73
2019-06-08T23:42:01.690Z,25.73
2019-06-08T23:44:33.771Z,25.71
2019-06-08T23:47:06.080Z,25.81
2019-06-08T23:49:38.316Z,25.87
2019-06-08T23:52:11.751Z,25.91
2019-06-08T23:54:43.685Z,25.90
2019-06-08T23:57:17.902Z,25.89
2019-06-08T23:59:49.357Z,25.51
